KERI/ERI METAR and TAF weather

Enter ICAO airport designator
Station Type Date Time Source
KERI METAR 2023/12/03 16:26 UTC NOAA

KERI 031626Z 19003KT 10SM OVC015 08/07 A2969 RMK AO2 T00830067


Station Type Date Time Source
KERI Decoded METAR 2023/12/03 16:26 UTC NOAA

ERIE INTERNATIONAL AIRPORT, PA, United States (KERI) 42-05N 080-11W 222M
Dec 03, 2023 - 11:26 AM EST / 2023.12.03 1626 UTC
Wind: from the S (190 degrees) at 3 MPH (3 KT):0
Visibility: 10 mile(s):0
Sky conditions: overcast
Temperature: 46.9 F (8.3 C)
Dew Point: 44.1 F (6.7 C)
Relative Humidity: 89%
Pressure (altimeter): 29.69 in. Hg (1005 hPa)
ob: KERI 031626Z 19003KT 10SM OVC015 08/07 A2969 RMK AO2 T00830067
cycle: 16

Station Type Date Time Source
KERI TAF 2023/12/03 15:58 UTC NOAA

TAF
AMD KERI 031457Z 0315/0412 VRB03KT P6SM OVC015
FM031800 21007KT P6SM BKN015
FM032000 23015G25KT P6SM VCSH BKN015
TEMPO 0320/0324 5SM -SHRA BKN015
FM040200 26015G25KT 5SM -SHRA BKN010

Example: see airport list